sensor_id;sensor_type;location;lat;lon;timestamp;P1;durP1;ratioP1;P2;durP2;ratioP2
29044;SDS011;16133;49.486;12.176;2023-08-21T00:01:00;15.07;;;11.98;;
29044;SDS011;16133;49.486;12.176;2023-08-21T00:03:25;20.70;;;13.40;;
29044;SDS011;16133;49.486;12.176;2023-08-21T00:05:51;17.95;;;13.45;;
29044;SDS011;16133;49.486;12.176;2023-08-21T00:08:16;17.13;;;12.48;;
29044;SDS011;16133;49.486;12.176;2023-08-21T00:10:42;18.23;;;13.07;;
29044;SDS011;16133;49.486;12.176;2023-08-21T00:13:07;21.65;;;14.55;;
29044;SDS011;16133;49.486;12.176;2023-08-21T00:15:32;16.80;;;13.20;;
29044;SDS011;16133;49.486;12.176;2023-08-21T00:17:58;18.08;;;13.32;;
29044;SDS011;16133;49.486;12.176;2023-08-21T00:20:23;17.42;;;12.82;;
29044;SDS011;16133;49.486;12.176;2023-08-21T00:22:49;17.85;;;13.63;;
29044;SDS011;16133;49.486;12.176;2023-08-21T00:25:14;19.92;;;14.60;;
29044;SDS011;16133;49.486;12.176;2023-08-21T00:27:40;21.52;;;14.48;;
29044;SDS011;16133;49.486;12.176;2023-08-21T00:30:05;19.83;;;13.73;;
29044;SDS011;16133;49.486;12.176;2023-08-21T00:32:31;19.60;;;13.75;;
29044;SDS011;16133;49.486;12.176;2023-08-21T00:34:56;18.83;;;13.27;;
29044;SDS011;16133;49.486;12.176;2023-08-21T00:37:22;17.50;;;13.63;;
29044;SDS011;16133;49.486;12.176;2023-08-21T00:39:48;18.48;;;12.90;;
29044;SDS011;16133;49.486;12.176;2023-08-21T00:42:13;19.88;;;14.10;;
29044;SDS011;16133;49.486;12.176;2023-08-21T00:44:38;21.85;;;15.27;;
29044;SDS011;16133;49.486;12.176;2023-08-21T00:47:04;22.27;;;15.95;;
29044;SDS011;16133;49.486;12.176;2023-08-21T00:49:29;21.25;;;13.70;;
29044;SDS011;16133;49.486;12.176;2023-08-21T00:51:55;24.30;;;14.27;;
29044;SDS011;16133;49.486;12.176;2023-08-21T00:54:21;19.58;;;14.93;;
29044;SDS011;16133;49.486;12.176;2023-08-21T00:56:47;18.60;;;13.45;;
29044;SDS011;16133;49.486;12.176;2023-08-21T00:59:12;18.77;;;13.35;;
29044;SDS011;16133;49.486;12.176;2023-08-21T01:01:38;21.33;;;14.27;;
29044;SDS011;16133;49.486;12.176;2023-08-21T01:04:04;20.40;;;14.40;;
29044;SDS011;16133;49.486;12.176;2023-08-21T01:06:30;22.48;;;14.50;;
29044;SDS011;16133;49.486;12.176;2023-08-21T01:14:19;24.02;;;15.30;;
29044;SDS011;16133;49.486;12.176;2023-08-21T01:16:56;20.02;;;14.82;;
29044;SDS011;16133;49.486;12.176;2023-08-21T01:19:26;19.25;;;13.55;;
29044;SDS011;16133;49.486;12.176;2023-08-21T01:22:00;18.75;;;13.88;;
29044;SDS011;16133;49.486;12.176;2023-08-21T01:24:26;21.00;;;14.57;;
29044;SDS011;16133;49.486;12.176;2023-08-21T01:26:51;25.83;;;14.95;;
29044;SDS011;16133;49.486;12.176;2023-08-21T01:29:16;23.45;;;14.57;;
29044;SDS011;16133;49.486;12.176;2023-08-21T01:31:43;20.80;;;15.27;;
29044;SDS011;16133;49.486;12.176;2023-08-21T01:34:15;22.08;;;14.98;;
29044;SDS011;16133;49.486;12.176;2023-08-21T01:36:42;19.15;;;13.90;;
29044;SDS011;16133;49.486;12.176;2023-08-21T01:39:08;22.63;;;15.85;;
29044;SDS011;16133;49.486;12.176;2023-08-21T01:41:34;21.27;;;14.15;;
29044;SDS011;16133;49.486;12.176;2023-08-21T01:43:59;19.98;;;14.68;;
29044;SDS011;16133;49.486;12.176;2023-08-21T01:46:24;20.75;;;14.23;;
29044;SDS011;16133;49.486;12.176;2023-08-21T01:48:50;22.50;;;15.30;;
29044;SDS011;16133;49.486;12.176;2023-08-21T01:51:15;20.05;;;14.35;;
29044;SDS011;16133;49.486;12.176;2023-08-21T01:53:40;21.95;;;13.60;;
29044;SDS011;16133;49.486;12.176;2023-08-21T01:56:06;18.30;;;13.85;;
29044;SDS011;16133;49.486;12.176;2023-08-21T01:58:31;19.40;;;13.45;;
29044;SDS011;16133;49.486;12.176;2023-08-21T02:00:57;20.30;;;13.15;;
29044;SDS011;16133;49.486;12.176;2023-08-21T02:03:24;23.95;;;14.27;;
29044;SDS011;16133;49.486;12.176;2023-08-21T02:05:50;18.45;;;13.43;;
29044;SDS011;16133;49.486;12.176;2023-08-21T02:08:17;22.42;;;15.50;;
29044;SDS011;16133;49.486;12.176;2023-08-21T02:10:49;22.40;;;14.52;;
29044;SDS011;16133;49.486;12.176;2023-08-21T02:13:15;22.98;;;15.07;;
29044;SDS011;16133;49.486;12.176;2023-08-21T02:15:41;21.98;;;15.10;;
29044;SDS011;16133;49.486;12.176;2023-08-21T02:18:06;20.58;;;13.85;;
29044;SDS011;16133;49.486;12.176;2023-08-21T02:20:32;23.27;;;15.70;;
29044;SDS011;16133;49.486;12.176;2023-08-21T02:22:57;25.20;;;16.70;;
29044;SDS011;16133;49.486;12.176;2023-08-21T02:25:22;20.48;;;14.55;;
29044;SDS011;16133;49.486;12.176;2023-08-21T02:27:48;22.50;;;15.13;;
29044;SDS011;16133;49.486;12.176;2023-08-21T02:30:13;21.60;;;15.20;;
29044;SDS011;16133;49.486;12.176;2023-08-21T02:32:39;21.27;;;14.52;;
29044;SDS011;16133;49.486;12.176;2023-08-21T02:35:05;22.90;;;15.25;;
29044;SDS011;16133;49.486;12.176;2023-08-21T02:37:33;21.20;;;15.38;;
29044;SDS011;16133;49.486;12.176;2023-08-21T02:39:58;20.95;;;15.13;;
29044;SDS011;16133;49.486;12.176;2023-08-21T02:42:24;24.05;;;14.43;;
29044;SDS011;16133;49.486;12.176;2023-08-21T02:44:50;19.08;;;13.70;;
29044;SDS011;16133;49.486;12.176;2023-08-21T02:47:15;18.38;;;13.05;;
29044;SDS011;16133;49.486;12.176;2023-08-21T02:49:41;18.63;;;12.95;;
29044;SDS011;16133;49.486;12.176;2023-08-21T02:52:06;18.63;;;13.18;;
29044;SDS011;16133;49.486;12.176;2023-08-21T02:54:32;18.30;;;13.25;;
29044;SDS011;16133;49.486;12.176;2023-08-21T02:56:57;19.92;;;13.63;;
29044;SDS011;16133;49.486;12.176;2023-08-21T02:59:23;21.60;;;14.48;;
29044;SDS011;16133;49.486;12.176;2023-08-21T03:01:48;19.52;;;14.48;;
29044;SDS011;16133;49.486;12.176;2023-08-21T03:04:13;22.17;;;15.13;;
29044;SDS011;16133;49.486;12.176;2023-08-21T03:06:39;25.08;;;16.20;;
29044;SDS011;16133;49.486;12.176;2023-08-21T03:09:04;26.38;;;16.25;;
29044;SDS011;16133;49.486;12.176;2023-08-21T03:11:29;22.83;;;16.10;;
29044;SDS011;16133;49.486;12.176;2023-08-21T03:13:55;24.42;;;16.08;;
29044;SDS011;16133;49.486;12.176;2023-08-21T03:16:20;26.73;;;15.82;;
29044;SDS011;16133;49.486;12.176;2023-08-21T03:18:56;25.17;;;16.50;;
29044;SDS011;16133;49.486;12.176;2023-08-21T03:21:23;24.35;;;16.40;;
29044;SDS011;16133;49.486;12.176;2023-08-21T03:23:55;26.23;;;16.75;;
29044;SDS011;16133;49.486;12.176;2023-08-21T03:26:23;25.10;;;17.27;;
29044;SDS011;16133;49.486;12.176;2023-08-21T03:28:49;26.25;;;17.85;;
29044;SDS011;16133;49.486;12.176;2023-08-21T03:31:14;23.35;;;16.70;;
29044;SDS011;16133;49.486;12.176;2023-08-21T03:33:40;26.17;;;17.80;;
29044;SDS011;16133;49.486;12.176;2023-08-21T03:36:06;25.05;;;15.80;;
29044;SDS011;16133;49.486;12.176;2023-08-21T03:38:32;23.80;;;16.35;;
29044;SDS011;16133;49.486;12.176;2023-08-21T03:40:58;20.90;;;15.40;;
29044;SDS011;16133;49.486;12.176;2023-08-21T03:43:24;23.70;;;16.42;;
29044;SDS011;16133;49.486;12.176;2023-08-21T03:45:49;21.25;;;15.25;;
29044;SDS011;16133;49.486;12.176;2023-08-21T03:48:15;23.02;;;16.02;;
29044;SDS011;16133;49.486;12.176;2023-08-21T03:50:40;20.27;;;14.13;;
29044;SDS011;16133;49.486;12.176;2023-08-21T03:53:06;23.35;;;15.27;;
29044;SDS011;16133;49.486;12.176;2023-08-21T03:55:31;19.08;;;13.50;;
29044;SDS011;16133;49.486;12.176;2023-08-21T03:57:56;20.88;;;15.32;;
29044;SDS011;16133;49.486;12.176;2023-08-21T04:00:22;18.75;;;13.88;;
29044;SDS011;16133;49.486;12.176;2023-08-21T04:02:47;18.63;;;13.80;;
29044;SDS011;16133;49.486;12.176;2023-08-21T04:05:13;19.73;;;13.98;;
29044;SDS011;16133;49.486;12.176;2023-08-21T04:07:38;19.52;;;14.30;;
29044;SDS011;16133;49.486;12.176;2023-08-21T04:10:04;22.00;;;13.82;;
29044;SDS011;16133;49.486;12.176;2023-08-21T04:12:30;21.60;;;15.65;;
29044;SDS011;16133;49.486;12.176;2023-08-21T04:14:56;19.98;;;13.98;;
29044;SDS011;16133;49.486;12.176;2023-08-21T04:17:21;20.23;;;14.88;;
29044;SDS011;16133;49.486;12.176;2023-08-21T04:19:47;22.55;;;14.75;;
29044;SDS011;16133;49.486;12.176;2023-08-21T04:22:13;18.40;;;13.43;;
29044;SDS011;16133;49.486;12.176;2023-08-21T04:24:39;19.88;;;13.43;;
29044;SDS011;16133;49.486;12.176;2023-08-21T04:27:05;19.77;;;13.32;;
29044;SDS011;16133;49.486;12.176;2023-08-21T04:29:31;18.52;;;13.30;;
29044;SDS011;16133;49.486;12.176;2023-08-21T04:31:56;19.63;;;13.18;;
29044;SDS011;16133;49.486;12.176;2023-08-21T04:34:21;22.60;;;13.48;;
29044;SDS011;16133;49.486;12.176;2023-08-21T04:36:47;18.70;;;13.50;;
29044;SDS011;16133;49.486;12.176;2023-08-21T04:39:14;21.13;;;14.05;;
29044;SDS011;16133;49.486;12.176;2023-08-21T04:41:40;18.15;;;13.18;;
29044;SDS011;16133;49.486;12.176;2023-08-21T04:44:06;17.35;;;12.75;;
29044;SDS011;16133;49.486;12.176;2023-08-21T04:46:31;18.90;;;13.10;;
29044;SDS011;16133;49.486;12.176;2023-08-21T04:48:57;19.08;;;13.43;;
29044;SDS011;16133;49.486;12.176;2023-08-21T04:51:22;16.50;;;12.23;;
29044;SDS011;16133;49.486;12.176;2023-08-21T04:53:48;18.67;;;13.77;;
29044;SDS011;16133;49.486;12.176;2023-08-21T04:56:13;21.50;;;13.52;;
29044;SDS011;16133;49.486;12.176;2023-08-21T04:58:38;20.02;;;14.05;;
29044;SDS011;16133;49.486;12.176;2023-08-21T05:01:04;17.30;;;12.60;;
29044;SDS011;16133;49.486;12.176;2023-08-21T05:03:30;18.52;;;13.30;;
29044;SDS011;16133;49.486;12.176;2023-08-21T05:05:55;18.42;;;13.18;;
29044;SDS011;16133;49.486;12.176;2023-08-21T05:08:25;18.35;;;13.75;;
29044;SDS011;16133;49.486;12.176;2023-08-21T05:11:00;19.63;;;13.48;;
29044;SDS011;16133;49.486;12.176;2023-08-21T05:13:26;16.02;;;11.57;;
29044;SDS011;16133;49.486;12.176;2023-08-21T05:15:52;17.67;;;12.25;;
29044;SDS011;16133;49.486;12.176;2023-08-21T05:18:19;15.32;;;11.70;;
29044;SDS011;16133;49.486;12.176;2023-08-21T05:20:45;16.55;;;11.25;;
29044;SDS011;16133;49.486;12.176;2023-08-21T05:23:10;15.55;;;11.18;;
29044;SDS011;16133;49.486;12.176;2023-08-21T05:25:36;12.25;;;9.95;;
29044;SDS011;16133;49.486;12.176;2023-08-21T05:28:01;14.68;;;11.10;;
29044;SDS011;16133;49.486;12.176;2023-08-21T05:30:27;16.95;;;11.60;;
29044;SDS011;16133;49.486;12.176;2023-08-21T05:32:52;14.27;;;10.82;;
29044;SDS011;16133;49.486;12.176;2023-08-21T05:35:18;16.77;;;10.25;;
29044;SDS011;16133;49.486;12.176;2023-08-21T05:37:45;12.75;;;9.57;;
29044;SDS011;16133;49.486;12.176;2023-08-21T05:40:10;13.18;;;10.07;;
29044;SDS011;16133;49.486;12.176;2023-08-21T05:42:36;13.98;;;10.77;;
29044;SDS011;16133;49.486;12.176;2023-08-21T05:45:01;13.18;;;9.90;;
29044;SDS011;16133;49.486;12.176;2023-08-21T05:47:27;12.00;;;10.15;;
29044;SDS011;16133;49.486;12.176;2023-08-21T05:49:53;12.23;;;9.27;;
29044;SDS011;16133;49.486;12.176;2023-08-21T05:52:18;14.20;;;9.82;;
29044;SDS011;16133;49.486;12.176;2023-08-21T05:54:44;14.95;;;11.50;;
29044;SDS011;16133;49.486;12.176;2023-08-21T05:57:09;13.60;;;10.77;;
29044;SDS011;16133;49.486;12.176;2023-08-21T05:59:34;12.82;;;10.13;;
29044;SDS011;16133;49.486;12.176;2023-08-21T06:02:00;13.57;;;10.82;;
29044;SDS011;16133;49.486;12.176;2023-08-21T06:04:26;13.98;;;10.90;;
29044;SDS011;16133;49.486;12.176;2023-08-21T06:06:52;14.82;;;11.73;;
29044;SDS011;16133;49.486;12.176;2023-08-21T06:09:18;15.93;;;11.38;;
29044;SDS011;16133;49.486;12.176;2023-08-21T06:11:44;12.55;;;10.32;;
29044;SDS011;16133;49.486;12.176;2023-08-21T06:14:09;16.27;;;11.65;;
29044;SDS011;16133;49.486;12.176;2023-08-21T06:16:34;14.80;;;10.93;;
29044;SDS011;16133;49.486;12.176;2023-08-21T06:19:00;17.85;;;11.95;;
29044;SDS011;16133;49.486;12.176;2023-08-21T06:21:25;13.57;;;11.02;;
29044;SDS011;16133;49.486;12.176;2023-08-21T06:23:50;14.13;;;10.93;;
29044;SDS011;16133;49.486;12.176;2023-08-21T06:26:16;17.35;;;11.77;;
29044;SDS011;16133;49.486;12.176;2023-08-21T06:28:41;13.52;;;10.73;;
29044;SDS011;16133;49.486;12.176;2023-08-21T06:31:08;17.25;;;11.90;;
29044;SDS011;16133;49.486;12.176;2023-08-21T06:33:33;15.43;;;11.55;;
29044;SDS011;16133;49.486;12.176;2023-08-21T06:35:58;16.17;;;11.05;;
29044;SDS011;16133;49.486;12.176;2023-08-21T06:38:24;13.88;;;11.63;;
29044;SDS011;16133;49.486;12.176;2023-08-21T06:40:49;18.90;;;12.73;;
29044;SDS011;16133;49.486;12.176;2023-08-21T06:43:16;16.25;;;12.82;;
29044;SDS011;16133;49.486;12.176;2023-08-21T06:45:42;14.85;;;11.55;;
29044;SDS011;16133;49.486;12.176;2023-08-21T06:48:07;15.57;;;12.38;;
29044;SDS011;16133;49.486;12.176;2023-08-21T06:50:32;16.25;;;10.77;;
29044;SDS011;16133;49.486;12.176;2023-08-21T06:52:58;15.75;;;10.68;;
29044;SDS011;16133;49.486;12.176;2023-08-21T06:55:23;21.27;;;10.50;;
29044;SDS011;16133;49.486;12.176;2023-08-21T06:57:49;17.98;;;11.90;;
29044;SDS011;16133;49.486;12.176;2023-08-21T07:00:14;14.25;;;11.15;;
29044;SDS011;16133;49.486;12.176;2023-08-21T07:02:40;13.25;;;10.55;;
29044;SDS011;16133;49.486;12.176;2023-08-21T07:05:05;15.40;;;11.25;;
29044;SDS011;16133;49.486;12.176;2023-08-21T07:07:31;13.77;;;11.40;;
29044;SDS011;16133;49.486;12.176;2023-08-21T07:09:56;14.50;;;10.63;;
29044;SDS011;16133;49.486;12.176;2023-08-21T07:12:22;15.82;;;11.20;;
29044;SDS011;16133;49.486;12.176;2023-08-21T07:14:47;17.48;;;11.60;;
29044;SDS011;16133;49.486;12.176;2023-08-21T07:17:13;13.15;;;9.98;;
29044;SDS011;16133;49.486;12.176;2023-08-21T07:19:39;12.18;;;10.82;;
29044;SDS011;16133;49.486;12.176;2023-08-21T07:22:04;11.23;;;9.25;;
29044;SDS011;16133;49.486;12.176;2023-08-21T07:24:29;11.30;;;9.57;;
29044;SDS011;16133;49.486;12.176;2023-08-21T07:26:55;11.05;;;9.88;;
29044;SDS011;16133;49.486;12.176;2023-08-21T07:29:20;12.07;;;10.00;;
29044;SDS011;16133;49.486;12.176;2023-08-21T07:31:45;11.15;;;9.85;;
29044;SDS011;16133;49.486;12.176;2023-08-21T07:34:11;11.27;;;10.17;;
29044;SDS011;16133;49.486;12.176;2023-08-21T07:36:36;11.68;;;10.00;;
29044;SDS011;16133;49.486;12.176;2023-08-21T07:39:02;12.07;;;9.98;;
29044;SDS011;16133;49.486;12.176;2023-08-21T07:41:27;11.48;;;9.10;;
29044;SDS011;16133;49.486;12.176;2023-08-21T07:43:52;14.55;;;10.73;;
29044;SDS011;16133;49.486;12.176;2023-08-21T07:46:18;13.43;;;9.38;;
29044;SDS011;16133;49.486;12.176;2023-08-21T07:48:44;10.25;;;9.20;;
29044;SDS011;16133;49.486;12.176;2023-08-21T07:51:10;11.07;;;9.90;;
29044;SDS011;16133;49.486;12.176;2023-08-21T07:53:36;13.35;;;10.77;;
29044;SDS011;16133;49.486;12.176;2023-08-21T07:56:02;12.23;;;9.93;;
29044;SDS011;16133;49.486;12.176;2023-08-21T07:58:31;17.05;;;10.07;;
29044;SDS011;16133;49.486;12.176;2023-08-21T08:00:57;13.18;;;11.18;;
29044;SDS011;16133;49.486;12.176;2023-08-21T08:03:23;18.60;;;11.68;;
29044;SDS011;16133;49.486;12.176;2023-08-21T08:05:48;14.10;;;10.50;;
29044;SDS011;16133;49.486;12.176;2023-08-21T08:08:13;14.80;;;11.13;;
29044;SDS011;16133;49.486;12.176;2023-08-21T08:10:39;12.80;;;10.80;;
29044;SDS011;16133;49.486;12.176;2023-08-21T08:13:05;13.48;;;10.63;;
29044;SDS011;16133;49.486;12.176;2023-08-21T08:15:32;12.82;;;11.30;;
29044;SDS011;16133;49.486;12.176;2023-08-21T08:18:01;13.25;;;10.52;;
29044;SDS011;16133;49.486;12.176;2023-08-21T08:20:32;18.15;;;11.32;;
29044;SDS011;16133;49.486;12.176;2023-08-21T08:22:58;15.18;;;11.18;;
29044;SDS011;16133;49.486;12.176;2023-08-21T08:25:23;13.68;;;11.68;;
29044;SDS011;16133;49.486;12.176;2023-08-21T08:27:49;14.52;;;11.35;;
29044;SDS011;16133;49.486;12.176;2023-08-21T08:30:15;12.25;;;10.13;;
29044;SDS011;16133;49.486;12.176;2023-08-21T08:32:42;14.35;;;10.52;;
29044;SDS011;16133;49.486;12.176;2023-08-21T08:35:14;17.30;;;10.90;;
29044;SDS011;16133;49.486;12.176;2023-08-21T08:37:40;17.60;;;11.95;;
29044;SDS011;16133;49.486;12.176;2023-08-21T08:40:06;12.90;;;11.10;;
29044;SDS011;16133;49.486;12.176;2023-08-21T08:42:32;12.48;;;10.68;;
29044;SDS011;16133;49.486;12.176;2023-08-21T08:45:00;14.77;;;8.95;;
29044;SDS011;16133;49.486;12.176;2023-08-21T08:47:29;14.30;;;9.70;;
29044;SDS011;16133;49.486;12.176;2023-08-21T08:49:57;11.35;;;8.88;;
29044;SDS011;16133;49.486;12.176;2023-08-21T08:52:24;14.88;;;9.88;;
29044;SDS011;16133;49.486;12.176;2023-08-21T08:54:53;13.98;;;9.68;;
29044;SDS011;16133;49.486;12.176;2023-08-21T08:57:20;11.07;;;8.50;;
29044;SDS011;16133;49.486;12.176;2023-08-21T08:59:46;9.98;;;8.30;;
29044;SDS011;16133;49.486;12.176;2023-08-21T09:02:11;10.65;;;8.27;;
29044;SDS011;16133;49.486;12.176;2023-08-21T09:04:37;11.88;;;8.95;;
29044;SDS011;16133;49.486;12.176;2023-08-21T09:07:06;10.68;;;8.27;;
29044;SDS011;16133;49.486;12.176;2023-08-21T09:09:39;13.27;;;10.50;;
29044;SDS011;16133;49.486;12.176;2023-08-21T09:12:12;11.02;;;9.70;;
29044;SDS011;16133;49.486;12.176;2023-08-21T09:14:42;13.93;;;10.43;;
29044;SDS011;16133;49.486;12.176;2023-08-21T09:17:09;16.02;;;10.85;;
29044;SDS011;16133;49.486;12.176;2023-08-21T09:19:35;13.75;;;10.05;;
29044;SDS011;16133;49.486;12.176;2023-08-21T09:22:21;13.93;;;10.75;;
29044;SDS011;16133;49.486;12.176;2023-08-21T09:27:44;13.00;;;10.43;;
29044;SDS011;16133;49.486;12.176;2023-08-21T09:30:10;16.55;;;10.70;;
29044;SDS011;16133;49.486;12.176;2023-08-21T09:32:55;13.80;;;10.50;;
29044;SDS011;16133;49.486;12.176;2023-08-21T09:35:31;14.20;;;10.82;;
29044;SDS011;16133;49.486;12.176;2023-08-21T09:37:58;14.40;;;9.98;;
29044;SDS011;16133;49.486;12.176;2023-08-21T09:40:24;14.68;;;12.43;;
29044;SDS011;16133;49.486;12.176;2023-08-21T09:42:53;16.42;;;11.02;;
29044;SDS011;16133;49.486;12.176;2023-08-21T09:45:20;15.38;;;11.43;;
29044;SDS011;16133;49.486;12.176;2023-08-21T09:47:46;13.15;;;10.88;;
29044;SDS011;16133;49.486;12.176;2023-08-21T09:50:12;13.50;;;10.63;;
29044;SDS011;16133;49.486;12.176;2023-08-21T09:52:38;13.48;;;10.63;;
29044;SDS011;16133;49.486;12.176;2023-08-21T09:55:03;16.77;;;11.55;;
29044;SDS011;16133;49.486;12.176;2023-08-21T09:57:30;13.60;;;11.23;;
29044;SDS011;16133;49.486;12.176;2023-08-21T09:59:58;15.05;;;11.20;;
29044;SDS011;16133;49.486;12.176;2023-08-21T10:02:24;13.93;;;11.80;;
29044;SDS011;16133;49.486;12.176;2023-08-21T10:04:51;14.07;;;11.32;;
29044;SDS011;16133;49.486;12.176;2023-08-21T10:07:18;14.50;;;11.80;;
29044;SDS011;16133;49.486;12.176;2023-08-21T10:09:47;15.02;;;11.45;;
29044;SDS011;16133;49.486;12.176;2023-08-21T10:12:13;15.95;;;11.88;;
29044;SDS011;16133;49.486;12.176;2023-08-21T10:14:40;11.60;;;9.90;;
29044;SDS011;16133;49.486;12.176;2023-08-21T10:17:06;13.07;;;10.13;;
29044;SDS011;16133;49.486;12.176;2023-08-21T10:19:33;11.63;;;9.07;;
29044;SDS011;16133;49.486;12.176;2023-08-21T10:22:00;11.18;;;9.25;;
29044;SDS011;16133;49.486;12.176;2023-08-21T10:24:37;16.38;;;8.48;;
29044;SDS011;16133;49.486;12.176;2023-08-21T10:27:03;12.80;;;8.75;;
29044;SDS011;16133;49.486;12.176;2023-08-21T10:29:28;12.57;;;9.27;;
29044;SDS011;16133;49.486;12.176;2023-08-21T10:32:02;10.18;;;9.02;;
29044;SDS011;16133;49.486;12.176;2023-08-21T10:34:35;11.63;;;8.75;;
29044;SDS011;16133;49.486;12.176;2023-08-21T10:37:07;11.15;;;7.93;;
29044;SDS011;16133;49.486;12.176;2023-08-21T10:39:35;10.10;;;7.13;;
29044;SDS011;16133;49.486;12.176;2023-08-21T10:44:54;10.82;;;7.13;;
29044;SDS011;16133;49.486;12.176;2023-08-21T10:49:56;10.93;;;7.57;;
29044;SDS011;16133;49.486;12.176;2023-08-21T10:52:27;11.18;;;8.02;;
29044;SDS011;16133;49.486;12.176;2023-08-21T10:55:00;9.50;;;7.22;;
29044;SDS011;16133;49.486;12.176;2023-08-21T10:57:27;12.68;;;7.45;;
29044;SDS011;16133;49.486;12.176;2023-08-21T11:00:04;11.63;;;8.48;;
29044;SDS011;16133;49.486;12.176;2023-08-21T11:02:36;10.82;;;8.60;;
29044;SDS011;16133;49.486;12.176;2023-08-21T11:05:03;12.65;;;7.68;;
29044;SDS011;16133;49.486;12.176;2023-08-21T11:07:30;10.75;;;8.40;;
29044;SDS011;16133;49.486;12.176;2023-08-21T11:09:56;9.70;;;7.78;;
29044;SDS011;16133;49.486;12.176;2023-08-21T11:12:22;20.52;;;12.05;;
29044;SDS011;16133;49.486;12.176;2023-08-21T11:14:48;15.80;;;8.90;;
29044;SDS011;16133;49.486;12.176;2023-08-21T11:17:14;10.60;;;7.15;;
29044;SDS011;16133;49.486;12.176;2023-08-21T11:19:40;10.05;;;7.30;;
29044;SDS011;16133;49.486;12.176;2023-08-21T11:22:07;12.18;;;6.63;;
29044;SDS011;16133;49.486;12.176;2023-08-21T11:26:58;9.77;;;7.35;;
29044;SDS011;16133;49.486;12.176;2023-08-21T11:29:24;11.77;;;8.30;;
29044;SDS011;16133;49.486;12.176;2023-08-21T11:31:49;10.85;;;7.95;;
29044;SDS011;16133;49.486;12.176;2023-08-21T11:34:19;11.30;;;7.50;;
29044;SDS011;16133;49.486;12.176;2023-08-21T11:36:45;8.65;;;7.22;;
29044;SDS011;16133;49.486;12.176;2023-08-21T11:39:10;12.35;;;8.02;;
29044;SDS011;16133;49.486;12.176;2023-08-21T11:41:52;11.38;;;6.68;;
29044;SDS011;16133;49.486;12.176;2023-08-21T11:44:21;13.15;;;6.85;;
29044;SDS011;16133;49.486;12.176;2023-08-21T11:46:47;10.60;;;7.25;;
29044;SDS011;16133;49.486;12.176;2023-08-21T11:49:12;10.98;;;7.47;;
29044;SDS011;16133;49.486;12.176;2023-08-21T11:51:38;9.93;;;7.22;;
29044;SDS011;16133;49.486;12.176;2023-08-21T11:54:04;10.20;;;6.95;;
29044;SDS011;16133;49.486;12.176;2023-08-21T11:56:30;11.98;;;6.05;;
29044;SDS011;16133;49.486;12.176;2023-08-21T11:58:56;11.23;;;6.28;;
29044;SDS011;16133;49.486;12.176;2023-08-21T12:01:24;11.00;;;6.82;;
29044;SDS011;16133;49.486;12.176;2023-08-21T12:03:49;9.50;;;6.13;;
29044;SDS011;16133;49.486;12.176;2023-08-21T12:06:19;7.93;;;5.80;;
29044;SDS011;16133;49.486;12.176;2023-08-21T12:08:45;10.10;;;6.45;;
29044;SDS011;16133;49.486;12.176;2023-08-21T12:11:10;6.68;;;5.75;;
29044;SDS011;16133;49.486;12.176;2023-08-21T12:13:36;10.23;;;6.03;;
29044;SDS011;16133;49.486;12.176;2023-08-21T12:16:02;10.82;;;6.28;;
29044;SDS011;16133;49.486;12.176;2023-08-21T12:18:28;7.05;;;5.82;;
29044;SDS011;16133;49.486;12.176;2023-08-21T12:20:53;6.60;;;5.75;;
29044;SDS011;16133;49.486;12.176;2023-08-21T12:23:18;7.78;;;5.88;;
29044;SDS011;16133;49.486;12.176;2023-08-21T12:25:44;9.15;;;6.15;;
29044;SDS011;16133;49.486;12.176;2023-08-21T12:28:09;11.05;;;5.93;;
29044;SDS011;16133;49.486;12.176;2023-08-21T12:30:36;8.35;;;5.75;;
29044;SDS011;16133;49.486;12.176;2023-08-21T12:33:01;9.18;;;6.18;;
29044;SDS011;16133;49.486;12.176;2023-08-21T12:35:26;10.18;;;6.40;;
29044;SDS011;16133;49.486;12.176;2023-08-21T12:37:56;6.90;;;6.20;;
29044;SDS011;16133;49.486;12.176;2023-08-21T12:40:30;8.63;;;6.45;;
29044;SDS011;16133;49.486;12.176;2023-08-21T12:42:56;13.73;;;7.40;;
29044;SDS011;16133;49.486;12.176;2023-08-21T12:45:21;9.45;;;7.85;;
29044;SDS011;16133;49.486;12.176;2023-08-21T12:47:46;9.02;;;8.10;;
29044;SDS011;16133;49.486;12.176;2023-08-21T12:50:12;9.13;;;7.72;;
29044;SDS011;16133;49.486;12.176;2023-08-21T12:52:38;11.38;;;7.53;;
29044;SDS011;16133;49.486;12.176;2023-08-21T12:55:04;11.57;;;7.63;;
29044;SDS011;16133;49.486;12.176;2023-08-21T12:57:31;8.40;;;7.22;;
29044;SDS011;16133;49.486;12.176;2023-08-21T12:59:56;9.07;;;7.30;;
29044;SDS011;16133;49.486;12.176;2023-08-21T13:02:21;12.43;;;7.10;;
29044;SDS011;16133;49.486;12.176;2023-08-21T13:04:48;10.98;;;6.82;;
29044;SDS011;16133;49.486;12.176;2023-08-21T13:07:14;9.60;;;7.40;;
29044;SDS011;16133;49.486;12.176;2023-08-21T13:09:39;9.57;;;7.45;;
29044;SDS011;16133;49.486;12.176;2023-08-21T13:12:05;9.63;;;6.90;;
29044;SDS011;16133;49.486;12.176;2023-08-21T13:14:30;9.25;;;7.55;;
29044;SDS011;16133;49.486;12.176;2023-08-21T13:16:56;10.82;;;7.57;;
29044;SDS011;16133;49.486;12.176;2023-08-21T13:19:21;11.32;;;7.35;;
29044;SDS011;16133;49.486;12.176;2023-08-21T13:21:46;10.80;;;7.95;;
29044;SDS011;16133;49.486;12.176;2023-08-21T13:24:12;7.50;;;6.68;;
29044;SDS011;16133;49.486;12.176;2023-08-21T13:26:37;8.95;;;6.95;;
29044;SDS011;16133;49.486;12.176;2023-08-21T13:29:02;9.70;;;7.57;;
29044;SDS011;16133;49.486;12.176;2023-08-21T13:31:28;11.93;;;8.18;;
29044;SDS011;16133;49.486;12.176;2023-08-21T13:33:56;11.32;;;7.63;;
29044;SDS011;16133;49.486;12.176;2023-08-21T13:36:21;10.88;;;8.00;;
29044;SDS011;16133;49.486;12.176;2023-08-21T13:38:47;11.90;;;7.50;;
29044;SDS011;16133;49.486;12.176;2023-08-21T13:41:12;9.45;;;7.57;;
29044;SDS011;16133;49.486;12.176;2023-08-21T13:43:38;10.60;;;7.78;;
29044;SDS011;16133;49.486;12.176;2023-08-21T13:46:04;8.88;;;7.20;;
29044;SDS011;16133;49.486;12.176;2023-08-21T13:48:30;10.65;;;7.93;;
29044;SDS011;16133;49.486;12.176;2023-08-21T13:50:55;8.75;;;7.43;;
29044;SDS011;16133;49.486;12.176;2023-08-21T13:53:21;8.95;;;7.68;;
29044;SDS011;16133;49.486;12.176;2023-08-21T13:55:47;10.52;;;7.80;;
29044;SDS011;16133;49.486;12.176;2023-08-21T13:58:12;9.50;;;7.00;;
29044;SDS011;16133;49.486;12.176;2023-08-21T14:00:37;9.27;;;7.05;;
29044;SDS011;16133;49.486;12.176;2023-08-21T14:03:03;10.25;;;6.50;;
29044;SDS011;16133;49.486;12.176;2023-08-21T14:05:28;13.38;;;7.75;;
29044;SDS011;16133;49.486;12.176;2023-08-21T14:07:56;11.07;;;6.95;;
29044;SDS011;16133;49.486;12.176;2023-08-21T14:10:22;9.57;;;6.95;;
29044;SDS011;16133;49.486;12.176;2023-08-21T14:12:47;8.90;;;6.60;;
29044;SDS011;16133;49.486;12.176;2023-08-21T14:15:13;10.23;;;6.53;;
29044;SDS011;16133;49.486;12.176;2023-08-21T14:17:38;7.13;;;5.82;;
29044;SDS011;16133;49.486;12.176;2023-08-21T14:20:03;10.48;;;6.43;;
29044;SDS011;16133;49.486;12.176;2023-08-21T14:22:29;15.70;;;6.55;;
29044;SDS011;16133;49.486;12.176;2023-08-21T14:24:55;9.75;;;6.47;;
29044;SDS011;16133;49.486;12.176;2023-08-21T14:27:23;10.68;;;6.10;;